Aviation Digital Data Service (ADDS)

Output produced by METARs form (1758 UTC 21 December 2014)
found at http://aviationweather.gov/adds/metars/
 
KGMU 211741Z 2118/2218 07005KT P6SM SCT019 OVC035 
     FM211900 07005KT P6SM OVC035 
     FM220300 05006KT P6SM -RA OVC016 
     FM220600 05008KT P6SM -RA OVC007 
     FM220900 04009KT 5SM -RADZ BR OVC006 
     FM221500 05008KT P6SM OVC007